Time;durP1;ratioP1;P1;durP2;ratioP2;P2;SDS_P1;SDS_P2;PMS_P1;PMS_P2;Temp;Humidity;BMP_temperature;BMP_pressure;BME280_temperature;BME280_humidity;BME280_pressure;Samples;Min_cycle;Max_cycle;Signal;HPM_P1;HPM_P2
2021/09/15 00:01:52;;;;;;;13.07;11.00;;;;;;;;;;5137624;27;20452;-71
2021/09/15 00:04:19;;;;;;;14.03;12.23;;;;;;;;;;5137744;27;20467;-71
2021/09/15 00:06:47;;;;;;;11.67;10.47;;;;;;;;;;5137788;27;20498;-71
2021/09/15 00:09:14;;;;;;;13.60;12.33;;;;;;;;;;5137511;27;20438;-71
2021/09/15 00:11:41;;;;;;;17.30;14.07;;;;;;;;;;5137299;27;20565;-71
2021/09/15 00:14:08;;;;;;;11.90;10.70;;;;;;;;;;5136715;27;20788;-71
2021/09/15 00:16:37;;;;;;;13.23;12.03;;;;;;;;;;5137342;27;20446;-71
2021/09/15 00:19:04;;;;;;;11.60;10.60;;;;;;;;;;5136978;27;20454;-71
2021/09/15 00:21:31;;;;;;;23.20;12.03;;;;;;;;;;5137256;27;20447;-71
2021/09/15 00:23:58;;;;;;;13.20;11.10;;;;;;;;;;5137964;27;20443;-71
2021/09/15 00:26:26;;;;;;;12.83;11.07;;;;;;;;;;5136898;27;20439;-71
2021/09/15 00:28:53;;;;;;;11.93;10.83;;;;;;;;;;5137153;27;20520;-70
2021/09/15 00:31:20;;;;;;;12.07;10.87;;;;;;;;;;5136955;27;20478;-72
2021/09/15 00:33:48;;;;;;;12.50;11.20;;;;;;;;;;5137093;27;20443;-71
2021/09/15 00:36:16;;;;;;;12.60;10.50;;;;;;;;;;5136663;27;20537;-72
2021/09/15 00:38:43;;;;;;;14.00;11.03;;;;;;;;;;5136912;27;20440;-72
2021/09/15 00:41:10;;;;;;;11.50;10.30;;;;;;;;;;5136892;27;20455;-71
2021/09/15 00:43:52;;;;;;;11.83;10.70;;;;;;;;;;5136207;27;20485;-70
2021/09/15 00:46:19;;;;;;;15.03;12.20;;;;;;;;;;5136235;27;20450;-71
2021/09/15 00:48:47;;;;;;;12.97;11.47;;;;;;;;;;5136745;27;20530;-71
2021/09/15 00:51:15;;;;;;;11.77;10.67;;;;;;;;;;5136715;27;20578;-71
2021/09/15 00:53:43;;;;;;;12.17;10.67;;;;;;;;;;5136700;27;20683;-71
2021/09/15 00:56:10;;;;;;;11.30;10.20;;;;;;;;;;5136590;27;20444;-71
2021/09/15 00:58:37;;;;;;;12.37;11.27;;;;;;;;;;5137152;27;20516;-71
2021/09/15 01:01:04;;;;;;;13.17;10.73;;;;;;;;;;5136463;27;20441;-71
2021/09/15 01:03:31;;;;;;;11.90;10.00;;;;;;;;;;5136595;27;20440;-71
2021/09/15 01:05:59;;;;;;;14.93;11.10;;;;;;;;;;5136377;27;20435;-71
2021/09/15 01:08:27;;;;;;;10.40;9.60;;;;;;;;;;5136329;27;20436;-71
2021/09/15 01:10:54;;;;;;;12.23;11.00;;;;;;;;;;5136308;27;20523;-71
2021/09/15 01:13:22;;;;;;;11.70;10.43;;;;;;;;;;5136361;27;20436;-71
2021/09/15 01:15:49;;;;;;;12.80;11.23;;;;;;;;;;5136401;27;20459;-71
2021/09/15 01:18:17;;;;;;;10.57;9.47;;;;;;;;;;5136115;27;20447;-71
2021/09/15 01:20:46;;;;;;;15.20;10.67;;;;;;;;;;5136086;27;20446;-71
2021/09/15 01:23:13;;;;;;;19.20;9.90;;;;;;;;;;5136433;27;20799;-71
2021/09/15 01:25:40;;;;;;;10.83;9.83;;;;;;;;;;5134891;27;20432;-71
2021/09/15 01:28:07;;;;;;;11.73;10.73;;;;;;;;;;5136415;27;20530;-71
2021/09/15 01:30:34;;;;;;;11.20;10.00;;;;;;;;;;5135909;27;20440;-71
2021/09/15 01:33:02;;;;;;;11.73;10.53;;;;;;;;;;5136203;27;20475;-71
2021/09/15 01:35:29;;;;;;;12.30;11.10;;;;;;;;;;5135796;27;20446;-71
2021/09/15 01:37:58;;;;;;;11.30;10.17;;;;;;;;;;5135459;27;20438;-70
2021/09/15 01:40:25;;;;;;;12.40;11.40;;;;;;;;;;5135723;27;20489;-70
2021/09/15 01:42:52;;;;;;;13.13;11.23;;;;;;;;;;5135834;27;20439;-71
2021/09/15 01:45:19;;;;;;;14.60;11.10;;;;;;;;;;5135188;27;20880;-71
2021/09/15 01:47:47;;;;;;;17.20;11.03;;;;;;;;;;5135537;27;20430;-71
2021/09/15 01:50:14;;;;;;;12.83;11.53;;;;;;;;;;5135841;27;20790;-71
2021/09/15 01:52:41;;;;;;;14.57;10.70;;;;;;;;;;5135401;27;20543;-71
2021/09/15 01:55:19;;;;;;;14.00;12.50;;;;;;;;;;5135472;27;20439;-71
2021/09/15 01:57:47;;;;;;;10.90;9.90;;;;;;;;;;5136174;27;20434;-71
2021/09/15 02:00:14;;;;;;;12.20;10.43;;;;;;;;;;5135870;27;20444;-71
2021/09/15 02:02:42;;;;;;;12.07;11.00;;;;;;;;;;5135996;27;20895;-71
2021/09/15 02:05:09;;;;;;;13.13;11.83;;;;;;;;;;5135859;27;20436;-71
2021/09/15 02:07:36;;;;;;;11.50;10.50;;;;;;;;;;5134900;27;20444;-71
2021/09/15 02:10:04;;;;;;;12.40;11.30;;;;;;;;;;5135206;27;20435;-71
2021/09/15 02:12:32;;;;;;;12.50;10.90;;;;;;;;;;5134737;27;20471;-71
2021/09/15 02:15:00;;;;;;;11.33;10.20;;;;;;;;;;5135700;27;20442;-71
2021/09/15 02:17:27;;;;;;;11.30;10.20;;;;;;;;;;5134815;27;20452;-71
2021/09/15 02:19:54;;;;;;;12.13;10.87;;;;;;;;;;5135008;27;20443;-71
2021/09/15 02:22:21;;;;;;;12.37;11.17;;;;;;;;;;5135033;27;20450;-72
2021/09/15 02:24:48;;;;;;;16.40;12.17;;;;;;;;;;5134945;27;20443;-71
2021/09/15 02:27:16;;;;;;;12.70;11.40;;;;;;;;;;5134591;27;20448;-71
2021/09/15 02:29:44;;;;;;;11.87;10.67;;;;;;;;;;5134881;27;20491;-71
2021/09/15 02:32:11;;;;;;;12.80;10.40;;;;;;;;;;5135286;27;20838;-72
2021/09/15 02:34:39;;;;;;;11.73;10.60;;;;;;;;;;5135366;27;20435;-72
2021/09/15 02:37:06;;;;;;;11.63;10.43;;;;;;;;;;5134323;27;20539;-72
2021/09/15 02:39:33;;;;;;;12.93;11.60;;;;;;;;;;5134828;27;20450;-72
2021/09/15 02:42:00;;;;;;;13.10;11.80;;;;;;;;;;5134761;27;20841;-71
2021/09/15 02:44:27;;;;;;;11.40;10.17;;;;;;;;;;5134250;27;20476;-71
2021/09/15 02:46:57;;;;;;;13.07;11.77;;;;;;;;;;5134624;27;20443;-71
2021/09/15 02:49:27;;;;;;;12.77;11.63;;;;;;;;;;5135048;27;20516;-71
2021/09/15 02:51:54;;;;;;;15.63;12.57;;;;;;;;;;5134223;28;20470;-71
2021/09/15 02:54:22;;;;;;;12.57;10.97;;;;;;;;;;5134503;28;20436;-70
2021/09/15 02:56:49;;;;;;;13.27;11.77;;;;;;;;;;5134849;28;20490;-71
2021/09/15 02:59:16;;;;;;;12.10;11.10;;;;;;;;;;5134549;28;20436;-71
2021/09/15 03:01:43;;;;;;;13.13;11.90;;;;;;;;;;5134507;28;20447;-72
2021/09/15 03:04:12;;;;;;;12.47;11.17;;;;;;;;;;5134177;28;20456;-71
2021/09/15 03:06:39;;;;;;;14.97;11.17;;;;;;;;;;5134078;28;20444;-71
2021/09/15 03:09:06;;;;;;;13.23;11.97;;;;;;;;;;5134713;28;20447;-71
2021/09/15 03:11:33;;;;;;;13.30;11.90;;;;;;;;;;5134321;28;20439;-72
2021/09/15 03:14:01;;;;;;;12.50;11.30;;;;;;;;;;5134894;28;20463;-71
2021/09/15 03:16:28;;;;;;;14.67;13.07;;;;;;;;;;5134947;28;20788;-71
2021/09/15 03:18:55;;;;;;;13.30;11.90;;;;;;;;;;5134428;28;20519;-71
2021/09/15 03:21:24;;;;;;;12.27;10.97;;;;;;;;;;5134362;28;20460;-71
2021/09/15 03:23:51;;;;;;;15.83;13.00;;;;;;;;;;5134470;28;20435;-71
2021/09/15 03:26:18;;;;;;;18.60;12.33;;;;;;;;;;5134001;28;20451;-72
2021/09/15 03:28:45;;;;;;;15.53;12.57;;;;;;;;;;5134632;28;20440;-71
2021/09/15 03:31:12;;;;;;;16.47;12.63;;;;;;;;;;5134254;28;20462;-71
2021/09/15 03:33:39;;;;;;;15.53;12.40;;;;;;;;;;5134644;28;20485;-71
2021/09/15 03:36:07;;;;;;;17.00;12.60;;;;;;;;;;5134181;28;20530;-71
2021/09/15 03:38:36;;;;;;;15.93;13.43;;;;;;;;;;5133837;28;20522;-71
2021/09/15 03:41:03;;;;;;;18.80;14.10;;;;;;;;;;5134123;28;20440;-72
2021/09/15 03:43:30;;;;;;;16.80;13.53;;;;;;;;;;5134674;28;20444;-71
2021/09/15 03:45:57;;;;;;;16.03;14.47;;;;;;;;;;5134470;28;20554;-71
2021/09/15 03:48:24;;;;;;;16.67;14.90;;;;;;;;;;5135592;27;20448;-71
2021/09/15 03:50:52;;;;;;;14.60;13.20;;;;;;;;;;5137899;27;20440;-71
2021/09/15 03:53:19;;;;;;;16.43;14.83;;;;;;;;;;5138051;27;20482;-71
2021/09/15 03:55:48;;;;;;;18.73;16.43;;;;;;;;;;5137524;27;20455;-71
2021/09/15 03:58:15;;;;;;;16.20;14.70;;;;;;;;;;5138088;27;20444;-71
2021/09/15 04:00:42;;;;;;;14.80;13.50;;;;;;;;;;5137951;27;20447;-71
2021/09/15 04:03:09;;;;;;;15.30;13.70;;;;;;;;;;5137692;27;20535;-71
2021/09/15 04:05:36;;;;;;;15.70;14.23;;;;;;;;;;5137326;27;20443;-71
2021/09/15 04:08:04;;;;;;;14.30;12.97;;;;;;;;;;5137265;27;20447;-70
2021/09/15 04:10:31;;;;;;;16.87;13.90;;;;;;;;;;5137542;27;20518;-71
2021/09/15 04:12:59;;;;;;;15.63;14.00;;;;;;;;;;5137609;27;20481;-71
2021/09/15 04:15:27;;;;;;;22.00;15.50;;;;;;;;;;5135788;27;20448;-70
2021/09/15 04:17:54;;;;;;;22.53;15.10;;;;;;;;;;5135836;27;20940;-69
2021/09/15 04:20:22;;;;;;;17.97;16.10;;;;;;;;;;5136112;27;20439;-69
2021/09/15 04:22:49;;;;;;;16.77;15.27;;;;;;;;;;5136773;27;20542;-70
2021/09/15 04:33:32;;;;;;;19.17;17.30;;;;;;;;;;5136710;27;20453;-70
2021/09/15 04:35:59;;;;;;;20.30;16.20;;;;;;;;;;5136772;27;20920;-70
2021/09/15 04:38:26;;;;;;;19.27;17.27;;;;;;;;;;5136068;27;20746;-70
2021/09/15 04:40:53;;;;;;;22.77;20.37;;;;;;;;;;5136050;27;20511;-70
2021/09/15 04:43:22;;;;;;;22.30;18.90;;;;;;;;;;5137340;27;20453;-70
2021/09/15 04:45:49;;;;;;;21.47;19.30;;;;;;;;;;5134510;27;20478;-70
2021/09/15 04:48:16;;;;;;;27.07;20.13;;;;;;;;;;5136493;27;20436;-70
2021/09/15 04:50:43;;;;;;;22.90;20.30;;;;;;;;;;5135812;27;20484;-70
2021/09/15 04:53:11;;;;;;;22.13;19.90;;;;;;;;;;5136493;27;20590;-70
2021/09/15 04:55:38;;;;;;;20.97;18.87;;;;;;;;;;5136241;27;20436;-70
2021/09/15 04:58:05;;;;;;;21.20;18.97;;;;;;;;;;5136529;27;20443;-72
2021/09/15 05:00:34;;;;;;;21.90;19.60;;;;;;;;;;5135679;27;20950;-70
2021/09/15 05:03:01;;;;;;;21.90;19.70;;;;;;;;;;5136031;27;20469;-70
2021/09/15 05:05:28;;;;;;;21.73;19.57;;;;;;;;;;5136224;27;20526;-70
2021/09/15 05:07:56;;;;;;;22.73;20.53;;;;;;;;;;5136191;27;20432;-70
2021/09/15 05:10:25;;;;;;;22.77;20.07;;;;;;;;;;5135980;27;20441;-70
2021/09/15 05:12:53;;;;;;;24.83;22.17;;;;;;;;;;5136007;27;20466;-69
2021/09/15 05:15:21;;;;;;;23.83;21.53;;;;;;;;;;5134923;27;20448;-70
2021/09/15 05:17:49;;;;;;;23.70;21.30;;;;;;;;;;5115467;27;20450;-69
2021/09/15 05:20:18;;;;;;;24.67;21.97;;;;;;;;;;5115837;28;20539;-69
2021/09/15 05:22:46;;;;;;;24.10;21.60;;;;;;;;;;5114717;28;20555;-70
2021/09/15 05:25:13;;;;;;;28.03;22.73;;;;;;;;;;5114129;28;20445;-70
2021/09/15 05:27:40;;;;;;;26.57;23.83;;;;;;;;;;5113985;28;20942;-69
2021/09/15 05:30:08;;;;;;;28.47;22.50;;;;;;;;;;5114493;28;20814;-69
2021/09/15 05:32:35;;;;;;;24.43;21.67;;;;;;;;;;5113746;28;21054;-70
2021/09/15 05:35:07;;;;;;;23.47;21.07;;;;;;;;;;5113909;28;20447;-70
2021/09/15 05:37:35;;;;;;;26.80;22.63;;;;;;;;;;5113849;28;20459;-70
2021/09/15 05:40:02;;;;;;;26.27;21.67;;;;;;;;;;5113519;28;20449;-70
2021/09/15 05:42:30;;;;;;;23.43;20.90;;;;;;;;;;5114132;28;20441;-70
2021/09/15 05:45:01;;;;;;;24.57;21.30;;;;;;;;;;5113842;28;20479;-70
2021/09/15 05:47:28;;;;;;;25.17;22.57;;;;;;;;;;5127404;27;20433;-69
2021/09/15 05:49:56;;;;;;;24.80;22.20;;;;;;;;;;5135201;27;20440;-69
2021/09/15 05:52:25;;;;;;;23.93;21.40;;;;;;;;;;5134819;27;20469;-70
2021/09/15 05:54:52;;;;;;;23.43;21.13;;;;;;;;;;5135274;27;20446;-69
2021/09/15 05:57:20;;;;;;;24.13;21.63;;;;;;;;;;5134803;27;20440;-68
2021/09/15 05:59:47;;;;;;;24.07;21.47;;;;;;;;;;5134991;27;20440;-70
2021/09/15 06:02:14;;;;;;;27.30;24.00;;;;;;;;;;5134001;27;20921;-69
2021/09/15 06:04:41;;;;;;;25.70;23.20;;;;;;;;;;5134753;27;20284;-69
2021/09/15 06:07:09;;;;;;;26.47;23.67;;;;;;;;;;5134585;27;20456;-70
2021/09/15 06:09:37;;;;;;;24.37;21.80;;;;;;;;;;5134748;27;20887;-69
2021/09/15 06:12:05;;;;;;;29.00;24.20;;;;;;;;;;5134202;27;20473;-69
2021/09/15 06:14:32;;;;;;;25.20;21.67;;;;;;;;;;5133906;27;20484;-69
2021/09/15 06:16:59;;;;;;;27.33;22.77;;;;;;;;;;5132137;27;20443;-69
2021/09/15 06:19:26;;;;;;;25.33;22.67;;;;;;;;;;5134647;27;20444;-69
2021/09/15 06:21:53;;;;;;;27.77;24.83;;;;;;;;;;5134107;27;20456;-69
2021/09/15 06:24:20;;;;;;;26.30;23.67;;;;;;;;;;5134481;27;20444;-71
2021/09/15 06:26:51;;;;;;;31.53;24.87;;;;;;;;;;5134101;27;20444;-69
2021/09/15 06:29:18;;;;;;;27.77;24.90;;;;;;;;;;5134946;27;20778;-69
2021/09/15 06:31:46;;;;;;;26.37;23.67;;;;;;;;;;5134507;27;20436;-69
2021/09/15 06:34:14;;;;;;;26.87;24.03;;;;;;;;;;5135417;27;20956;-70
2021/09/15 06:36:41;;;;;;;24.50;21.83;;;;;;;;;;5134969;27;20432;-70
2021/09/15 06:39:09;;;;;;;25.47;22.97;;;;;;;;;;5134542;27;20482;-69
2021/09/15 06:41:36;;;;;;;25.77;22.33;;;;;;;;;;5134157;27;20443;-68
2021/09/15 06:44:05;;;;;;;26.10;23.00;;;;;;;;;;5134217;27;20489;-68
2021/09/15 06:46:32;;;;;;;27.23;24.40;;;;;;;;;;5134584;27;20447;-68
2021/09/15 06:49:00;;;;;;;32.10;28.67;;;;;;;;;;5134565;27;20522;-69
2021/09/15 06:51:27;;;;;;;26.30;23.67;;;;;;;;;;5134555;27;20442;-69
2021/09/15 06:53:54;;;;;;;28.63;25.63;;;;;;;;;;5134352;28;20473;-70
2021/09/15 06:56:21;;;;;;;25.80;23.20;;;;;;;;;;5134432;28;20530;-69
2021/09/15 06:58:48;;;;;;;30.50;25.83;;;;;;;;;;5134489;28;20435;-69
2021/09/15 07:01:17;;;;;;;26.53;23.83;;;;;;;;;;5134113;28;20440;-76
2021/09/15 07:03:44;;;;;;;25.23;22.53;;;;;;;;;;5134528;28;20458;-69
2021/09/15 07:06:11;;;;;;;26.70;23.83;;;;;;;;;;5133739;28;20444;-69
2021/09/15 07:08:38;;;;;;;30.43;24.70;;;;;;;;;;5134064;28;20428;-68
2021/09/15 07:11:05;;;;;;;28.13;25.13;;;;;;;;;;5128473;28;20456;-69
2021/09/15 07:13:33;;;;;;;33.83;25.27;;;;;;;;;;5133785;28;20479;-70
2021/09/15 07:16:01;;;;;;;33.10;25.83;;;;;;;;;;5133943;28;21023;-70
2021/09/15 07:18:30;;;;;;;35.17;28.73;;;;;;;;;;5133631;28;20443;-70
2021/09/15 07:20:57;;;;;;;30.03;26.93;;;;;;;;;;5134017;28;20530;-70
2021/09/15 07:23:25;;;;;;;31.20;27.80;;;;;;;;;;5136889;27;21024;-69
2021/09/15 07:25:52;;;;;;;34.73;29.40;;;;;;;;;;5138152;27;20779;-70
2021/09/15 07:28:19;;;;;;;32.93;29.10;;;;;;;;;;5137664;27;20542;-70
2021/09/15 07:30:47;;;;;;;35.87;29.73;;;;;;;;;;5137879;27;20444;-70
2021/09/15 07:33:14;;;;;;;34.73;29.00;;;;;;;;;;5138072;27;20489;-70
2021/09/15 07:35:43;;;;;;;34.93;30.87;;;;;;;;;;5137853;27;20438;-70
2021/09/15 07:38:10;;;;;;;36.87;30.37;;;;;;;;;;5137702;27;20441;-70
2021/09/15 07:40:37;;;;;;;41.90;31.40;;;;;;;;;;5131487;27;20437;-71
2021/09/15 07:43:04;;;;;;;35.20;30.40;;;;;;;;;;5116204;28;20444;-71
2021/09/15 07:45:32;;;;;;;40.33;30.70;;;;;;;;;;5117621;28;20498;-70
2021/09/15 07:47:59;;;;;;;38.50;30.83;;;;;;;;;;5116915;28;20447;-71
2021/09/15 07:50:26;;;;;;;41.40;31.00;;;;;;;;;;5117196;28;20440;-71
2021/09/15 07:52:55;;;;;;;35.57;31.43;;;;;;;;;;5115971;28;20480;-71
2021/09/15 07:55:22;;;;;;;41.73;31.80;;;;;;;;;;5115784;28;20469;-71
2021/09/15 07:57:52;;;;;;;36.10;30.73;;;;;;;;;;5115915;28;20439;-71
2021/09/15 08:00:20;;;;;;;32.53;28.70;;;;;;;;;;5116356;28;20441;-70
2021/09/15 08:02:47;;;;;;;36.97;26.80;;;;;;;;;;5116316;28;20534;-70
2021/09/15 08:05:14;;;;;;;42.10;28.93;;;;;;;;;;5116899;28;20443;-79
2021/09/15 08:07:42;;;;;;;43.60;29.03;;;;;;;;;;5116273;28;20941;-76
2021/09/15 08:10:11;;;;;;;35.47;29.10;;;;;;;;;;5116116;28;20478;-73
2021/09/15 08:12:40;;;;;;;41.60;30.30;;;;;;;;;;5133856;27;20469;-73
2021/09/15 08:15:07;;;;;;;37.07;28.60;;;;;;;;;;5137379;27;20572;-73
2021/09/15 08:17:35;;;;;;;35.03;30.40;;;;;;;;;;5136610;27;20443;-73
2021/09/15 08:20:02;;;;;;;40.70;32.33;;;;;;;;;;5136594;27;20441;-73
2021/09/15 08:22:29;;;;;;;50.10;35.13;;;;;;;;;;5136203;27;20430;-76
2021/09/15 08:24:56;;;;;;;65.77;36.10;;;;;;;;;;5136665;27;20448;-76
2021/09/15 08:27:25;;;;;;;34.90;30.23;;;;;;;;;;5137066;27;20469;-76
2021/09/15 08:29:52;;;;;;;35.30;31.57;;;;;;;;;;5136482;27;20447;-76
2021/09/15 08:32:19;;;;;;;35.33;31.43;;;;;;;;;;5136454;27;20800;-76
2021/09/15 08:34:46;;;;;;;46.20;33.63;;;;;;;;;;5135918;27;20476;-76
2021/09/15 08:37:14;;;;;;;45.93;34.07;;;;;;;;;;5137018;27;20547;-76
2021/09/15 08:39:41;;;;;;;45.20;33.67;;;;;;;;;;5136513;27;20492;-76
2021/09/15 08:42:08;;;;;;;42.40;32.83;;;;;;;;;;5122297;27;20444;-76
2021/09/15 08:44:38;;;;;;;43.37;33.37;;;;;;;;;;5114943;28;20475;-76
2021/09/15 08:47:07;;;;;;;40.80;33.47;;;;;;;;;;5115745;28;20956;-77
2021/09/15 08:49:34;;;;;;;40.90;33.67;;;;;;;;;;5116069;28;20545;-77
2021/09/15 08:52:01;;;;;;;48.53;35.50;;;;;;;;;;5115543;28;20525;-77
2021/09/15 08:54:29;;;;;;;42.60;34.23;;;;;;;;;;5115496;28;20473;-78
2021/09/15 08:56:56;;;;;;;47.53;37.70;;;;;;;;;;5115492;28;20441;-77
2021/09/15 08:59:23;;;;;;;43.60;33.83;;;;;;;;;;5115970;28;20526;-77
2021/09/15 09:02:05;;;;;;;44.90;35.77;;;;;;;;;;5115404;28;20451;-78
2021/09/15 09:04:32;;;;;;;44.03;33.87;;;;;;;;;;5116269;28;20523;-78
2021/09/15 09:07:11;;;;;;;46.03;36.07;;;;;;;;;;5115797;28;20812;-78
2021/09/15 09:09:45;;;;;;;51.70;36.97;;;;;;;;;;5115895;28;20465;-78
2021/09/15 09:12:12;;;;;;;45.43;34.57;;;;;;;;;;5115340;28;20444;-78
2021/09/15 09:14:39;;;;;;;48.97;39.03;;;;;;;;;;5115395;28;20497;-78
2021/09/15 09:17:08;;;;;;;40.57;34.90;;;;;;;;;;5115454;28;20871;-78
2021/09/15 09:19:35;;;;;;;41.37;34.17;;;;;;;;;;5114960;28;20940;-79
2021/09/15 09:22:06;;;;;;;41.90;36.37;;;;;;;;;;5115308;28;20443;-78
2021/09/15 09:24:33;;;;;;;47.73;37.73;;;;;;;;;;5115778;28;20437;-78
2021/09/15 09:27:02;;;;;;;43.87;36.53;;;;;;;;;;5115497;28;20441;-78
2021/09/15 09:29:30;;;;;;;41.47;36.87;;;;;;;;;;5115400;28;20445;-78
2021/09/15 09:31:59;;;;;;;44.57;37.73;;;;;;;;;;5114786;28;20448;-78
2021/09/15 09:34:28;;;;;;;48.27;38.90;;;;;;;;;;5114999;28;20525;-77
2021/09/15 09:37:02;;;;;;;50.00;37.33;;;;;;;;;;5115158;28;20455;-77
2021/09/15 09:39:40;;;;;;;42.10;35.20;;;;;;;;;;5115043;28;20437;-79
2021/09/15 09:42:22;;;;;;;57.67;39.93;;;;;;;;;;5114849;28;20463;-75
2021/09/15 09:44:49;;;;;;;47.67;36.10;;;;;;;;;;5111012;28;20495;-74
2021/09/15 09:47:20;;;;;;;50.80;38.70;;;;;;;;;;5114399;28;20446;-74
2021/09/15 09:50:00;;;;;;;47.57;37.47;;;;;;;;;;5114874;28;20440;-74
2021/09/15 09:52:27;;;;;;;57.87;38.17;;;;;;;;;;5115126;28;20816;-74
2021/09/15 09:54:59;;;;;;;46.47;37.30;;;;;;;;;;5114734;28;20827;-74
2021/09/15 09:57:26;;;;;;;44.07;36.40;;;;;;;;;;5114466;28;20430;-75
2021/09/15 09:59:54;;;;;;;54.70;39.87;;;;;;;;;;5114617;28;20476;-74
2021/09/15 10:02:21;;;;;;;45.77;37.00;;;;;;;;;;5114901;28;20448;-74
2021/09/15 10:04:49;;;;;;;55.57;38.70;;;;;;;;;;5114127;28;20445;-74
2021/09/15 10:07:18;;;;;;;48.10;36.63;;;;;;;;;;5114554;28;20441;-75
2021/09/15 10:09:45;;;;;;;49.73;38.27;;;;;;;;;;5114472;28;20447;-74
2021/09/15 10:12:13;;;;;;;59.33;40.60;;;;;;;;;;5114558;28;20529;-74
2021/09/15 10:14:45;;;;;;;57.47;40.10;;;;;;;;;;5114134;28;20480;-73
2021/09/15 10:17:14;;;;;;;58.33;39.30;;;;;;;;;;5112425;27;20445;-75
2021/09/15 10:19:42;;;;;;;54.37;40.50;;;;;;;;;;5114588;28;20445;-74
2021/09/15 10:22:09;;;;;;;50.57;39.70;;;;;;;;;;5114418;28;20437;-74
2021/09/15 10:24:55;;;;;;;50.30;37.50;;;;;;;;;;5113852;28;20978;-74
2021/09/15 10:27:24;;;;;;;54.30;39.10;;;;;;;;;;5113021;28;20439;-75
2021/09/15 10:30:12;;;;;;;47.60;37.93;;;;;;;;;;5112743;28;20474;-75
2021/09/15 10:32:40;;;;;;;42.93;36.60;;;;;;;;;;5106205;28;20544;-75
2021/09/15 10:35:07;;;;;;;44.03;36.00;;;;;;;;;;5113747;28;20474;-75
2021/09/15 10:37:53;;;;;;;39.80;35.60;;;;;;;;;;5113594;28;20957;-75
2021/09/15 10:40:44;;;;;;;37.43;31.53;;;;;;;;;;5113835;28;20433;-74
2021/09/15 10:43:30;;;;;;;34.93;31.13;;;;;;;;;;5113879;28;20426;-74
2021/09/15 10:46:16;;;;;;;34.63;31.13;;;;;;;;;;5111813;28;21008;-74
2021/09/15 10:48:45;;;;;;;34.43;30.80;;;;;;;;;;5113794;28;20853;-75
2021/09/15 10:51:19;;;;;;;34.03;30.53;;;;;;;;;;5113596;28;20447;-74
2021/09/15 10:53:46;;;;;;;36.73;31.87;;;;;;;;;;5113400;28;20429;-76
2021/09/15 10:56:33;;;;;;;40.13;35.07;;;;;;;;;;5113207;28;21046;-76
2021/09/15 10:59:01;;;;;;;33.60;30.00;;;;;;;;;;5113950;28;20439;-76
2021/09/15 11:01:38;;;;;;;36.87;30.80;;;;;;;;;;5113342;28;20451;-76
2021/09/15 11:04:07;;;;;;;33.70;29.70;;;;;;;;;;5114691;28;20429;-76
2021/09/15 11:06:37;;;;;;;33.87;29.20;;;;;;;;;;5113012;28;20924;-76
2021/09/15 11:09:05;;;;;;;34.47;29.97;;;;;;;;;;5113827;28;20438;-76
2021/09/15 11:11:51;;;;;;;38.57;30.50;;;;;;;;;;5113483;28;20438;-76
2021/09/15 11:14:18;;;;;;;30.33;27.23;;;;;;;;;;5113541;28;20534;-77
2021/09/15 11:16:47;;;;;;;29.63;26.60;;;;;;;;;;5113752;28;20497;-76
2021/09/15 11:19:17;;;;;;;32.97;27.70;;;;;;;;;;5130171;28;20437;-76
2021/09/15 11:21:47;;;;;;;26.93;24.50;;;;;;;;;;5134089;28;20440;-74
2021/09/15 11:24:16;;;;;;;31.73;28.43;;;;;;;;;;5134520;28;20429;-76
2021/09/15 11:26:45;;;;;;;30.37;27.27;;;;;;;;;;5134056;28;20856;-75
2021/09/15 11:29:13;;;;;;;29.17;26.20;;;;;;;;;;5133879;28;20438;-76
2021/09/15 11:31:41;;;;;;;28.77;25.70;;;;;;;;;;5133640;28;20940;-74
2021/09/15 11:34:10;;;;;;;32.23;26.67;;;;;;;;;;5134191;28;20440;-74
2021/09/15 11:36:40;;;;;;;27.73;25.00;;;;;;;;;;5133552;28;20432;-75
2021/09/15 11:39:08;;;;;;;28.63;25.53;;;;;;;;;;5133928;28;20435;-74
2021/09/15 11:41:35;;;;;;;23.83;21.53;;;;;;;;;;5133381;28;20435;-76
2021/09/15 11:44:02;;;;;;;24.40;21.97;;;;;;;;;;5133355;28;20566;-74
2021/09/15 11:46:34;;;;;;;20.63;18.63;;;;;;;;;;5133382;28;21161;-74
2021/09/15 11:49:01;;;;;;;18.73;17.13;;;;;;;;;;5124427;28;20449;-74
2021/09/15 11:51:28;;;;;;;20.37;18.57;;;;;;;;;;5113274;28;20795;-74
2021/09/15 11:54:00;;;;;;;19.67;17.90;;;;;;;;;;5112824;28;20944;-74
2021/09/15 11:56:32;;;;;;;20.17;18.17;;;;;;;;;;5112892;28;20469;-75
2021/09/15 11:58:59;;;;;;;19.73;17.40;;;;;;;;;;5112819;28;20437;-74
2021/09/15 12:01:27;;;;;;;16.60;14.70;;;;;;;;;;5113314;28;20440;-73
2021/09/15 12:03:56;;;;;;;19.30;17.50;;;;;;;;;;5112949;28;20968;-74
2021/09/15 12:06:23;;;;;;;16.70;15.40;;;;;;;;;;5112426;28;20442;-75
2021/09/15 12:08:50;;;;;;;16.07;14.40;;;;;;;;;;5113232;28;20950;-75
2021/09/15 12:11:20;;;;;;;19.50;14.20;;;;;;;;;;5116718;28;20467;-74
2021/09/15 12:13:47;;;;;;;15.00;13.43;;;;;;;;;;5116469;28;20490;-73
2021/09/15 12:16:27;;;;;;;15.00;13.70;;;;;;;;;;5116064;28;20977;-74
2021/09/15 12:18:54;;;;;;;16.17;14.80;;;;;;;;;;5115669;28;20443;-73
2021/09/15 12:21:22;;;;;;;13.03;11.83;;;;;;;;;;5115087;27;20459;-74
2021/09/15 12:23:50;;;;;;;14.60;12.20;;;;;;;;;;5115884;28;20964;-74
2021/09/15 12:26:26;;;;;;;14.80;13.50;;;;;;;;;;5116334;28;21014;-74
2021/09/15 12:29:01;;;;;;;11.77;10.77;;;;;;;;;;5116205;28;20436;-75
2021/09/15 12:31:38;;;;;;;12.47;11.27;;;;;;;;;;5116223;28;20774;-74
2021/09/15 12:34:05;;;;;;;12.10;11.10;;;;;;;;;;5117078;28;20423;-76
2021/09/15 12:36:32;;;;;;;12.37;11.27;;;;;;;;;;5116091;28;20476;-75
2021/09/15 12:39:01;;;;;;;13.03;11.93;;;;;;;;;;5116000;28;20442;-76
2021/09/15 12:41:30;;;;;;;12.73;11.63;;;;;;;;;;5116294;28;20443;-75
2021/09/15 12:44:04;;;;;;;13.40;12.23;;;;;;;;;;5115713;28;20802;-75
2021/09/15 12:46:31;;;;;;;13.27;11.97;;;;;;;;;;5115931;28;20448;-76
2021/09/15 12:48:59;;;;;;;13.10;11.90;;;;;;;;;;5115778;28;20545;-75
2021/09/15 12:51:27;;;;;;;12.90;11.63;;;;;;;;;;5115655;28;20924;-65
2021/09/15 12:53:55;;;;;;;16.20;12.00;;;;;;;;;;5122695;27;20433;-75
2021/09/15 12:56:23;;;;;;;13.77;12.47;;;;;;;;;;5122215;27;20477;-75
2021/09/15 12:58:52;;;;;;;14.60;13.10;;;;;;;;;;5115257;28;20449;-78
2021/09/15 13:01:21;;;;;;;12.60;11.40;;;;;;;;;;5113701;27;20945;-74
2021/09/15 13:03:52;;;;;;;15.07;13.77;;;;;;;;;;5114899;28;20445;-76
2021/09/15 13:06:20;;;;;;;15.03;13.63;;;;;;;;;;5114545;28;20818;-69
2021/09/15 13:08:48;;;;;;;15.07;13.87;;;;;;;;;;5114988;28;20830;-76
2021/09/15 13:11:16;;;;;;;14.30;13.00;;;;;;;;;;5115244;28;20503;-74
2021/09/15 13:13:43;;;;;;;16.07;14.67;;;;;;;;;;5115260;28;20488;-74
2021/09/15 13:16:12;;;;;;;14.60;13.33;;;;;;;;;;5114738;28;20806;-74
2021/09/15 13:18:40;;;;;;;14.70;13.30;;;;;;;;;;5115162;28;20437;-74
2021/09/15 13:21:07;;;;;;;12.17;11.17;;;;;;;;;;5115315;28;20532;-75
2021/09/15 13:23:35;;;;;;;13.83;12.63;;;;;;;;;;5115782;28;20438;-72
2021/09/15 13:26:03;;;;;;;14.97;13.40;;;;;;;;;;5114491;28;20449;-74
2021/09/15 13:28:31;;;;;;;13.30;12.20;;;;;;;;;;5114481;28;20449;-75
2021/09/15 13:30:59;;;;;;;12.80;11.60;;;;;;;;;;5114927;28;20517;-71
2021/09/15 13:33:27;;;;;;;14.33;13.13;;;;;;;;;;5114858;28;20440;-73
2021/09/15 13:35:55;;;;;;;11.57;10.57;;;;;;;;;;5115223;28;20482;-74
2021/09/15 13:38:23;;;;;;;12.83;11.60;;;;;;;;;;5114485;28;20448;-74
2021/09/15 13:40:50;;;;;;;10.40;9.50;;;;;;;;;;5114801;28;21034;-75
2021/09/15 13:43:17;;;;;;;12.50;10.73;;;;;;;;;;5115643;28;20481;-74
2021/09/15 13:45:44;;;;;;;11.67;10.53;;;;;;;;;;5115222;28;20573;-76
2021/09/15 13:48:11;;;;;;;11.10;10.10;;;;;;;;;;5114696;28;20540;-75
2021/09/15 13:50:40;;;;;;;10.80;9.90;;;;;;;;;;5114710;28;21004;-74
2021/09/15 13:53:07;;;;;;;10.70;9.80;;;;;;;;;;5114641;28;20528;-74
2021/09/15 13:55:34;;;;;;;10.33;9.43;;;;;;;;;;5114373;28;20981;-75
2021/09/15 13:58:02;;;;;;;10.50;9.60;;;;;;;;;;5114773;28;20832;-76
2021/09/15 14:00:29;;;;;;;11.20;9.63;;;;;;;;;;5114723;28;20445;-75
2021/09/15 14:02:56;;;;;;;9.40;8.70;;;;;;;;;;5114407;28;20451;-76
2021/09/15 14:05:23;;;;;;;9.00;8.30;;;;;;;;;;5114314;28;20943;-76
2021/09/15 14:07:52;;;;;;;10.37;9.40;;;;;;;;;;5114857;28;20438;-75
2021/09/15 14:10:19;;;;;;;10.90;9.90;;;;;;;;;;5114464;28;20442;-75
2021/09/15 14:12:46;;;;;;;10.80;9.90;;;;;;;;;;5115248;28;20447;-73
2021/09/15 14:15:13;;;;;;;10.80;9.70;;;;;;;;;;5114713;28;20446;-74
2021/09/15 14:17:41;;;;;;;10.17;9.13;;;;;;;;;;5114181;28;20446;-75
2021/09/15 14:20:09;;;;;;;9.60;8.70;;;;;;;;;;5114066;28;20445;-75
2021/09/15 14:22:36;;;;;;;9.90;8.97;;;;;;;;;;5114377;28;20517;-75
2021/09/15 14:25:05;;;;;;;10.20;9.20;;;;;;;;;;5113846;28;20444;-76
2021/09/15 14:27:32;;;;;;;8.87;8.17;;;;;;;;;;5114238;28;20481;-75
2021/09/15 14:30:01;;;;;;;10.67;8.53;;;;;;;;;;5114204;28;20799;-76
2021/09/15 14:32:28;;;;;;;8.90;8.10;;;;;;;;;;5113596;28;20449;-77
2021/09/15 14:34:55;;;;;;;8.60;7.80;;;;;;;;;;5113826;28;20947;-77